sensor_id;sensor_type;location;lat;lon;timestamp;P1;durP1;ratioP1;P2;durP2;ratioP2
5774;SDS011;2913;51.120;6.772;2023-05-07T00:01:11;9.93;;;5.30;;
5774;SDS011;2913;51.120;6.772;2023-05-07T00:03:36;9.65;;;5.50;;
5774;SDS011;2913;51.120;6.772;2023-05-07T00:06:02;9.65;;;5.15;;
5774;SDS011;2913;51.120;6.772;2023-05-07T00:08:28;14.77;;;5.30;;
5774;SDS011;2913;51.120;6.772;2023-05-07T00:10:54;10.60;;;5.00;;
5774;SDS011;2913;51.120;6.772;2023-05-07T00:13:19;10.45;;;6.22;;
5774;SDS011;2913;51.120;6.772;2023-05-07T00:15:45;16.80;;;5.72;;
5774;SDS011;2913;51.120;6.772;2023-05-07T00:18:11;10.40;;;5.88;;
5774;SDS011;2913;51.120;6.772;2023-05-07T00:20:36;13.52;;;6.10;;
5774;SDS011;2913;51.120;6.772;2023-05-07T00:23:04;10.82;;;6.00;;
5774;SDS011;2913;51.120;6.772;2023-05-07T00:25:30;13.63;;;5.80;;
5774;SDS011;2913;51.120;6.772;2023-05-07T00:27:56;10.98;;;5.85;;
5774;SDS011;2913;51.120;6.772;2023-05-07T00:30:29;11.30;;;5.45;;
5774;SDS011;2913;51.120;6.772;2023-05-07T00:32:57;12.70;;;5.82;;
5774;SDS011;2913;51.120;6.772;2023-05-07T00:35:25;12.48;;;5.95;;
5774;SDS011;2913;51.120;6.772;2023-05-07T00:37:51;9.73;;;6.20;;
5774;SDS011;2913;51.120;6.772;2023-05-07T00:40:17;10.63;;;6.10;;
5774;SDS011;2913;51.120;6.772;2023-05-07T00:42:44;10.93;;;5.70;;
5774;SDS011;2913;51.120;6.772;2023-05-07T00:45:12;9.55;;;5.80;;
5774;SDS011;2913;51.120;6.772;2023-05-07T00:47:38;10.48;;;5.57;;
5774;SDS011;2913;51.120;6.772;2023-05-07T00:50:04;11.30;;;5.68;;
5774;SDS011;2913;51.120;6.772;2023-05-07T00:52:31;11.60;;;5.57;;
5774;SDS011;2913;51.120;6.772;2023-05-07T00:54:56;9.48;;;5.50;;
5774;SDS011;2913;51.120;6.772;2023-05-07T00:57:22;12.18;;;5.32;;
5774;SDS011;2913;51.120;6.772;2023-05-07T00:59:51;12.57;;;5.25;;
5774;SDS011;2913;51.120;6.772;2023-05-07T01:02:17;9.30;;;5.65;;
5774;SDS011;2913;51.120;6.772;2023-05-07T01:04:42;11.48;;;5.72;;
5774;SDS011;2913;51.120;6.772;2023-05-07T01:07:10;13.38;;;5.28;;
5774;SDS011;2913;51.120;6.772;2023-05-07T01:09:41;8.75;;;4.63;;
5774;SDS011;2913;51.120;6.772;2023-05-07T01:12:07;13.65;;;5.55;;
5774;SDS011;2913;51.120;6.772;2023-05-07T01:14:33;11.05;;;5.60;;
5774;SDS011;2913;51.120;6.772;2023-05-07T01:17:02;10.52;;;5.50;;
5774;SDS011;2913;51.120;6.772;2023-05-07T01:19:31;10.35;;;5.68;;
5774;SDS011;2913;51.120;6.772;2023-05-07T01:21:59;10.38;;;5.45;;
5774;SDS011;2913;51.120;6.772;2023-05-07T01:24:31;11.30;;;5.57;;
5774;SDS011;2913;51.120;6.772;2023-05-07T01:26:59;8.73;;;5.07;;
5774;SDS011;2913;51.120;6.772;2023-05-07T01:29:26;8.82;;;5.03;;
5774;SDS011;2913;51.120;6.772;2023-05-07T01:31:52;8.40;;;5.00;;
5774;SDS011;2913;51.120;6.772;2023-05-07T01:34:18;8.45;;;5.68;;
5774;SDS011;2913;51.120;6.772;2023-05-07T01:36:46;9.63;;;5.50;;
5774;SDS011;2913;51.120;6.772;2023-05-07T01:39:15;12.95;;;5.43;;
5774;SDS011;2913;51.120;6.772;2023-05-07T01:41:42;8.70;;;4.65;;
5774;SDS011;2913;51.120;6.772;2023-05-07T01:44:08;16.95;;;5.32;;
5774;SDS011;2913;51.120;6.772;2023-05-07T01:46:37;12.10;;;5.22;;
5774;SDS011;2913;51.120;6.772;2023-05-07T01:49:05;8.65;;;5.45;;
5774;SDS011;2913;51.120;6.772;2023-05-07T01:51:33;10.05;;;5.28;;
5774;SDS011;2913;51.120;6.772;2023-05-07T01:53:59;8.80;;;4.90;;
5774;SDS011;2913;51.120;6.772;2023-05-07T01:56:25;8.43;;;4.85;;
5774;SDS011;2913;51.120;6.772;2023-05-07T01:58:51;8.10;;;4.85;;
5774;SDS011;2913;51.120;6.772;2023-05-07T02:01:17;10.02;;;5.07;;
5774;SDS011;2913;51.120;6.772;2023-05-07T02:03:47;10.63;;;5.72;;
5774;SDS011;2913;51.120;6.772;2023-05-07T02:06:13;11.93;;;5.00;;
5774;SDS011;2913;51.120;6.772;2023-05-07T02:08:41;8.75;;;5.15;;
5774;SDS011;2913;51.120;6.772;2023-05-07T02:11:07;10.27;;;5.28;;
5774;SDS011;2913;51.120;6.772;2023-05-07T02:13:32;9.55;;;5.60;;
5774;SDS011;2913;51.120;6.772;2023-05-07T02:16:01;8.82;;;5.68;;
5774;SDS011;2913;51.120;6.772;2023-05-07T02:18:32;8.48;;;5.35;;
5774;SDS011;2913;51.120;6.772;2023-05-07T02:21:00;8.65;;;5.60;;
5774;SDS011;2913;51.120;6.772;2023-05-07T02:23:28;9.20;;;5.50;;
5774;SDS011;2913;51.120;6.772;2023-05-07T02:25:54;12.10;;;5.25;;
5774;SDS011;2913;51.120;6.772;2023-05-07T02:28:19;7.22;;;5.00;;
5774;SDS011;2913;51.120;6.772;2023-05-07T02:30:45;7.53;;;5.32;;
5774;SDS011;2913;51.120;6.772;2023-05-07T02:33:11;12.20;;;5.35;;
5774;SDS011;2913;51.120;6.772;2023-05-07T02:35:39;12.18;;;5.68;;
5774;SDS011;2913;51.120;6.772;2023-05-07T02:38:05;11.82;;;5.50;;
5774;SDS011;2913;51.120;6.772;2023-05-07T02:40:30;9.50;;;5.50;;
5774;SDS011;2913;51.120;6.772;2023-05-07T02:42:58;6.93;;;5.07;;
5774;SDS011;2913;51.120;6.772;2023-05-07T02:45:24;13.63;;;5.40;;
5774;SDS011;2913;51.120;6.772;2023-05-07T02:47:52;8.88;;;5.18;;
5774;SDS011;2913;51.120;6.772;2023-05-07T02:50:20;14.65;;;6.43;;
5774;SDS011;2913;51.120;6.772;2023-05-07T02:52:46;8.88;;;4.93;;
5774;SDS011;2913;51.120;6.772;2023-05-07T02:55:14;8.98;;;5.72;;
5774;SDS011;2913;51.120;6.772;2023-05-07T02:57:40;13.88;;;5.43;;
5774;SDS011;2913;51.120;6.772;2023-05-07T03:00:11;9.73;;;5.80;;
5774;SDS011;2913;51.120;6.772;2023-05-07T03:02:41;10.85;;;5.75;;
5774;SDS011;2913;51.120;6.772;2023-05-07T03:05:07;12.43;;;6.47;;
5774;SDS011;2913;51.120;6.772;2023-05-07T03:07:34;10.43;;;5.18;;
5774;SDS011;2913;51.120;6.772;2023-05-07T03:10:00;15.05;;;5.70;;
5774;SDS011;2913;51.120;6.772;2023-05-07T03:12:26;7.25;;;5.15;;
5774;SDS011;2913;51.120;6.772;2023-05-07T03:14:51;10.90;;;5.68;;
5774;SDS011;2913;51.120;6.772;2023-05-07T03:17:17;10.07;;;5.30;;
5774;SDS011;2913;51.120;6.772;2023-05-07T03:19:42;13.50;;;5.40;;
5774;SDS011;2913;51.120;6.772;2023-05-07T03:22:10;10.70;;;5.30;;
5774;SDS011;2913;51.120;6.772;2023-05-07T03:24:36;11.95;;;5.13;;
5774;SDS011;2913;51.120;6.772;2023-05-07T03:27:03;8.63;;;4.80;;
5774;SDS011;2913;51.120;6.772;2023-05-07T03:29:29;10.45;;;4.70;;
5774;SDS011;2913;51.120;6.772;2023-05-07T03:31:55;8.52;;;4.75;;
5774;SDS011;2913;51.120;6.772;2023-05-07T03:34:23;7.82;;;4.85;;
5774;SDS011;2913;51.120;6.772;2023-05-07T03:36:49;14.52;;;5.20;;
5774;SDS011;2913;51.120;6.772;2023-05-07T03:39:14;9.40;;;5.07;;
5774;SDS011;2913;51.120;6.772;2023-05-07T03:41:40;6.35;;;4.85;;
5774;SDS011;2913;51.120;6.772;2023-05-07T03:44:06;8.20;;;5.03;;
5774;SDS011;2913;51.120;6.772;2023-05-07T03:46:32;8.18;;;4.90;;
5774;SDS011;2913;51.120;6.772;2023-05-07T03:49:02;7.88;;;4.45;;
5774;SDS011;2913;51.120;6.772;2023-05-07T03:51:27;8.07;;;4.65;;
5774;SDS011;2913;51.120;6.772;2023-05-07T03:53:55;8.68;;;4.55;;
5774;SDS011;2913;51.120;6.772;2023-05-07T03:56:23;9.57;;;5.55;;
5774;SDS011;2913;51.120;6.772;2023-05-07T03:58:51;8.10;;;4.75;;
5774;SDS011;2913;51.120;6.772;2023-05-07T04:01:17;8.77;;;4.90;;
5774;SDS011;2913;51.120;6.772;2023-05-07T04:03:43;10.10;;;5.43;;
5774;SDS011;2913;51.120;6.772;2023-05-07T04:06:08;8.93;;;5.00;;
5774;SDS011;2913;51.120;6.772;2023-05-07T04:08:34;7.65;;;5.53;;
5774;SDS011;2913;51.120;6.772;2023-05-07T04:11:00;7.63;;;5.20;;
5774;SDS011;2913;51.120;6.772;2023-05-07T04:13:26;16.38;;;5.28;;
5774;SDS011;2913;51.120;6.772;2023-05-07T04:15:52;9.50;;;5.15;;
5774;SDS011;2913;51.120;6.772;2023-05-07T04:18:18;8.65;;;5.60;;
5774;SDS011;2913;51.120;6.772;2023-05-07T04:20:44;9.05;;;5.13;;
5774;SDS011;2913;51.120;6.772;2023-05-07T04:23:11;11.70;;;5.20;;
5774;SDS011;2913;51.120;6.772;2023-05-07T04:25:39;8.60;;;5.10;;
5774;SDS011;2913;51.120;6.772;2023-05-07T04:28:04;8.93;;;5.03;;
5774;SDS011;2913;51.120;6.772;2023-05-07T04:30:30;11.05;;;4.93;;
5774;SDS011;2913;51.120;6.772;2023-05-07T04:32:56;9.10;;;5.40;;
5774;SDS011;2913;51.120;6.772;2023-05-07T04:35:24;7.18;;;4.78;;
5774;SDS011;2913;51.120;6.772;2023-05-07T04:37:52;9.85;;;5.72;;
5774;SDS011;2913;51.120;6.772;2023-05-07T04:40:20;10.10;;;5.45;;
5774;SDS011;2913;51.120;6.772;2023-05-07T04:42:46;11.00;;;5.32;;
5774;SDS011;2913;51.120;6.772;2023-05-07T04:45:11;14.90;;;5.18;;
5774;SDS011;2913;51.120;6.772;2023-05-07T04:47:37;9.23;;;5.30;;
5774;SDS011;2913;51.120;6.772;2023-05-07T04:50:03;9.82;;;5.00;;
5774;SDS011;2913;51.120;6.772;2023-05-07T04:52:30;22.15;;;6.45;;
5774;SDS011;2913;51.120;6.772;2023-05-07T04:54:56;10.98;;;5.40;;
5774;SDS011;2913;51.120;6.772;2023-05-07T04:57:23;13.02;;;5.28;;
5774;SDS011;2913;51.120;6.772;2023-05-07T04:59:49;10.35;;;4.68;;
5774;SDS011;2913;51.120;6.772;2023-05-07T05:02:17;10.73;;;4.95;;
5774;SDS011;2913;51.120;6.772;2023-05-07T05:04:45;6.18;;;4.15;;
5774;SDS011;2913;51.120;6.772;2023-05-07T05:07:10;12.85;;;4.93;;
5774;SDS011;2913;51.120;6.772;2023-05-07T05:09:38;7.50;;;4.40;;
5774;SDS011;2913;51.120;6.772;2023-05-07T05:12:06;11.57;;;4.53;;
5774;SDS011;2913;51.120;6.772;2023-05-07T05:14:32;7.70;;;3.90;;
5774;SDS011;2913;51.120;6.772;2023-05-07T05:16:58;14.95;;;3.95;;
5774;SDS011;2913;51.120;6.772;2023-05-07T05:19:23;8.38;;;4.22;;
5774;SDS011;2913;51.120;6.772;2023-05-07T05:21:51;8.43;;;4.00;;
5774;SDS011;2913;51.120;6.772;2023-05-07T05:24:17;9.38;;;4.15;;
5774;SDS011;2913;51.120;6.772;2023-05-07T05:26:42;19.80;;;4.70;;
5774;SDS011;2913;51.120;6.772;2023-05-07T05:29:08;8.75;;;4.18;;
5774;SDS011;2913;51.120;6.772;2023-05-07T05:31:35;8.55;;;3.95;;
5774;SDS011;2913;51.120;6.772;2023-05-07T05:34:01;8.48;;;3.53;;
5774;SDS011;2913;51.120;6.772;2023-05-07T05:36:29;10.07;;;3.65;;
5774;SDS011;2913;51.120;6.772;2023-05-07T05:38:58;8.15;;;3.90;;
5774;SDS011;2913;51.120;6.772;2023-05-07T05:41:24;8.00;;;3.50;;
5774;SDS011;2913;51.120;6.772;2023-05-07T05:43:49;5.45;;;3.30;;
5774;SDS011;2913;51.120;6.772;2023-05-07T05:46:17;6.90;;;3.83;;
5774;SDS011;2913;51.120;6.772;2023-05-07T05:48:45;4.43;;;3.40;;
5774;SDS011;2913;51.120;6.772;2023-05-07T05:51:13;9.02;;;3.10;;
5774;SDS011;2913;51.120;6.772;2023-05-07T05:53:39;9.98;;;3.13;;
5774;SDS011;2913;51.120;6.772;2023-05-07T05:56:06;6.43;;;3.58;;
5774;SDS011;2913;51.120;6.772;2023-05-07T05:58:32;9.95;;;4.15;;
5774;SDS011;2913;51.120;6.772;2023-05-07T06:00:58;6.95;;;3.55;;
5774;SDS011;2913;51.120;6.772;2023-05-07T06:03:23;5.70;;;4.00;;
5774;SDS011;2913;51.120;6.772;2023-05-07T06:05:49;6.40;;;3.97;;
5774;SDS011;2913;51.120;6.772;2023-05-07T06:08:17;9.25;;;4.15;;
5774;SDS011;2913;51.120;6.772;2023-05-07T06:10:43;5.65;;;3.63;;
5774;SDS011;2913;51.120;6.772;2023-05-07T06:13:11;10.68;;;4.15;;
5774;SDS011;2913;51.120;6.772;2023-05-07T06:15:39;6.85;;;4.00;;
5774;SDS011;2913;51.120;6.772;2023-05-07T06:18:04;9.60;;;4.35;;
5774;SDS011;2913;51.120;6.772;2023-05-07T06:20:33;11.32;;;4.40;;
5774;SDS011;2913;51.120;6.772;2023-05-07T06:22:59;14.60;;;4.70;;
5774;SDS011;2913;51.120;6.772;2023-05-07T06:25:24;10.43;;;4.75;;
5774;SDS011;2913;51.120;6.772;2023-05-07T06:27:50;7.55;;;4.50;;
5774;SDS011;2913;51.120;6.772;2023-05-07T06:30:18;7.78;;;4.70;;
5774;SDS011;2913;51.120;6.772;2023-05-07T06:32:44;15.80;;;5.30;;
5774;SDS011;2913;51.120;6.772;2023-05-07T06:35:10;8.05;;;4.90;;
5774;SDS011;2913;51.120;6.772;2023-05-07T06:37:35;7.93;;;4.70;;
5774;SDS011;2913;51.120;6.772;2023-05-07T06:40:03;11.82;;;4.28;;
5774;SDS011;2913;51.120;6.772;2023-05-07T06:42:30;10.98;;;4.60;;
5774;SDS011;2913;51.120;6.772;2023-05-07T06:44:56;8.18;;;5.20;;
5774;SDS011;2913;51.120;6.772;2023-05-07T06:47:21;9.55;;;4.90;;
5774;SDS011;2913;51.120;6.772;2023-05-07T06:49:50;8.27;;;4.35;;
5774;SDS011;2913;51.120;6.772;2023-05-07T06:52:17;9.05;;;4.57;;
5774;SDS011;2913;51.120;6.772;2023-05-07T06:54:43;7.78;;;4.40;;
5774;SDS011;2913;51.120;6.772;2023-05-07T06:57:09;10.10;;;4.78;;
5774;SDS011;2913;51.120;6.772;2023-05-07T06:59:34;7.88;;;4.30;;
5774;SDS011;2913;51.120;6.772;2023-05-07T07:02:04;9.70;;;4.15;;
5774;SDS011;2913;51.120;6.772;2023-05-07T07:04:30;9.35;;;4.40;;
5774;SDS011;2913;51.120;6.772;2023-05-07T07:06:56;9.68;;;4.35;;
5774;SDS011;2913;51.120;6.772;2023-05-07T07:09:24;10.93;;;4.68;;
5774;SDS011;2913;51.120;6.772;2023-05-07T07:11:49;8.80;;;3.95;;
5774;SDS011;2913;51.120;6.772;2023-05-07T07:14:15;7.07;;;4.05;;
5774;SDS011;2913;51.120;6.772;2023-05-07T07:16:43;9.50;;;3.80;;
5774;SDS011;2913;51.120;6.772;2023-05-07T07:19:11;11.50;;;3.80;;
5774;SDS011;2913;51.120;6.772;2023-05-07T07:21:37;6.47;;;3.50;;
5774;SDS011;2913;51.120;6.772;2023-05-07T07:24:02;6.88;;;3.70;;
5774;SDS011;2913;51.120;6.772;2023-05-07T07:26:30;6.93;;;3.30;;
5774;SDS011;2913;51.120;6.772;2023-05-07T07:28:56;7.93;;;3.30;;
5774;SDS011;2913;51.120;6.772;2023-05-07T07:31:22;9.02;;;3.58;;
5774;SDS011;2913;51.120;6.772;2023-05-07T07:33:47;5.25;;;3.38;;
5774;SDS011;2913;51.120;6.772;2023-05-07T07:36:15;7.28;;;3.50;;
5774;SDS011;2913;51.120;6.772;2023-05-07T07:38:42;5.00;;;3.28;;
5774;SDS011;2913;51.120;6.772;2023-05-07T07:41:08;9.93;;;3.75;;
5774;SDS011;2913;51.120;6.772;2023-05-07T07:43:34;6.63;;;3.17;;
5774;SDS011;2913;51.120;6.772;2023-05-07T07:46:02;4.60;;;3.40;;
5774;SDS011;2913;51.120;6.772;2023-05-07T07:48:28;8.60;;;3.30;;
5774;SDS011;2913;51.120;6.772;2023-05-07T07:50:53;5.70;;;3.38;;
5774;SDS011;2913;51.120;6.772;2023-05-07T07:53:19;7.50;;;3.38;;
5774;SDS011;2913;51.120;6.772;2023-05-07T07:55:45;9.65;;;3.20;;
5774;SDS011;2913;51.120;6.772;2023-05-07T07:58:10;5.22;;;2.97;;
5774;SDS011;2913;51.120;6.772;2023-05-07T08:00:38;4.93;;;2.95;;
5774;SDS011;2913;51.120;6.772;2023-05-07T08:03:08;5.93;;;2.92;;
5774;SDS011;2913;51.120;6.772;2023-05-07T08:05:37;5.75;;;3.03;;
5774;SDS011;2913;51.120;6.772;2023-05-07T08:08:03;7.38;;;3.10;;
5774;SDS011;2913;51.120;6.772;2023-05-07T08:10:29;5.63;;;2.95;;
5774;SDS011;2913;51.120;6.772;2023-05-07T08:12:59;6.35;;;2.78;;
5774;SDS011;2913;51.120;6.772;2023-05-07T08:15:25;5.57;;;2.60;;
5774;SDS011;2913;51.120;6.772;2023-05-07T08:17:53;5.90;;;2.63;;
5774;SDS011;2913;51.120;6.772;2023-05-07T08:20:28;8.45;;;2.90;;
5774;SDS011;2913;51.120;6.772;2023-05-07T08:22:53;7.25;;;3.10;;
5774;SDS011;2913;51.120;6.772;2023-05-07T08:25:19;5.57;;;2.65;;
5774;SDS011;2913;51.120;6.772;2023-05-07T08:27:45;5.05;;;2.95;;
5774;SDS011;2913;51.120;6.772;2023-05-07T08:30:13;11.27;;;3.22;;
5774;SDS011;2913;51.120;6.772;2023-05-07T08:32:43;6.30;;;2.75;;
5774;SDS011;2913;51.120;6.772;2023-05-07T08:35:09;5.75;;;3.10;;
5774;SDS011;2913;51.120;6.772;2023-05-07T08:37:34;5.15;;;2.90;;
5774;SDS011;2913;51.120;6.772;2023-05-07T08:40:02;4.60;;;3.15;;
5774;SDS011;2913;51.120;6.772;2023-05-07T08:42:28;6.82;;;3.20;;
5774;SDS011;2913;51.120;6.772;2023-05-07T08:44:58;7.35;;;3.20;;
5774;SDS011;2913;51.120;6.772;2023-05-07T08:47:26;6.28;;;2.80;;
5774;SDS011;2913;51.120;6.772;2023-05-07T08:49:59;4.97;;;2.70;;
5774;SDS011;2913;51.120;6.772;2023-05-07T08:52:26;5.80;;;2.80;;
5774;SDS011;2913;51.120;6.772;2023-05-07T08:54:52;6.88;;;2.42;;
5774;SDS011;2913;51.120;6.772;2023-05-07T08:57:18;4.85;;;2.88;;
5774;SDS011;2913;51.120;6.772;2023-05-07T08:59:46;6.28;;;2.83;;
5774;SDS011;2913;51.120;6.772;2023-05-07T09:02:14;7.22;;;2.70;;
5774;SDS011;2913;51.120;6.772;2023-05-07T09:04:41;6.57;;;3.10;;
5774;SDS011;2913;51.120;6.772;2023-05-07T09:07:07;8.98;;;3.20;;
5774;SDS011;2913;51.120;6.772;2023-05-07T09:09:34;6.30;;;2.85;;
5774;SDS011;2913;51.120;6.772;2023-05-07T09:12:00;4.90;;;3.20;;
5774;SDS011;2913;51.120;6.772;2023-05-07T09:14:27;5.25;;;2.90;;
5774;SDS011;2913;51.120;6.772;2023-05-07T09:16:53;5.72;;;3.05;;
5774;SDS011;2913;51.120;6.772;2023-05-07T09:19:25;3.95;;;3.15;;
5774;SDS011;2913;51.120;6.772;2023-05-07T09:21:59;7.20;;;3.20;;
5774;SDS011;2913;51.120;6.772;2023-05-07T09:24:29;4.97;;;3.47;;
5774;SDS011;2913;51.120;6.772;2023-05-07T09:26:59;5.28;;;3.10;;
5774;SDS011;2913;51.120;6.772;2023-05-07T09:29:26;5.22;;;2.85;;
5774;SDS011;2913;51.120;6.772;2023-05-07T09:31:54;4.30;;;3.03;;
5774;SDS011;2913;51.120;6.772;2023-05-07T09:34:23;4.45;;;3.10;;
5774;SDS011;2913;51.120;6.772;2023-05-07T09:36:51;5.47;;;2.90;;
5774;SDS011;2913;51.120;6.772;2023-05-07T09:39:16;3.92;;;2.80;;
5774;SDS011;2913;51.120;6.772;2023-05-07T09:41:45;7.32;;;2.83;;
5774;SDS011;2913;51.120;6.772;2023-05-07T09:44:12;6.82;;;2.92;;
5774;SDS011;2913;51.120;6.772;2023-05-07T09:46:42;6.60;;;2.80;;
5774;SDS011;2913;51.120;6.772;2023-05-07T09:49:12;7.32;;;3.00;;
5774;SDS011;2913;51.120;6.772;2023-05-07T09:51:49;5.55;;;2.83;;
5774;SDS011;2913;51.120;6.772;2023-05-07T09:54:16;5.38;;;2.92;;
5774;SDS011;2913;51.120;6.772;2023-05-07T09:56:44;5.65;;;2.85;;
5774;SDS011;2913;51.120;6.772;2023-05-07T09:59:12;7.47;;;3.00;;
5774;SDS011;2913;51.120;6.772;2023-05-07T10:01:40;5.82;;;2.55;;
5774;SDS011;2913;51.120;6.772;2023-05-07T10:04:09;5.78;;;2.67;;
5774;SDS011;2913;51.120;6.772;2023-05-07T10:06:35;7.03;;;3.20;;
5774;SDS011;2913;51.120;6.772;2023-05-07T10:09:06;11.25;;;3.17;;
5774;SDS011;2913;51.120;6.772;2023-05-07T10:11:33;6.10;;;2.92;;
5774;SDS011;2913;51.120;6.772;2023-05-07T10:13:59;5.97;;;2.40;;
5774;SDS011;2913;51.120;6.772;2023-05-07T10:16:27;4.40;;;2.80;;
5774;SDS011;2913;51.120;6.772;2023-05-07T10:18:57;3.22;;;2.33;;
5774;SDS011;2913;51.120;6.772;2023-05-07T10:21:27;5.55;;;2.47;;
5774;SDS011;2913;51.120;6.772;2023-05-07T10:24:04;8.00;;;2.97;;
5774;SDS011;2913;51.120;6.772;2023-05-07T10:26:38;10.23;;;2.10;;
5774;SDS011;2913;51.120;6.772;2023-05-07T10:34:32;3.55;;;1.50;;
5774;SDS011;2913;51.120;6.772;2023-05-07T10:37:05;3.53;;;1.30;;
5774;SDS011;2913;51.120;6.772;2023-05-07T10:39:35;2.95;;;1.48;;
5774;SDS011;2913;51.120;6.772;2023-05-07T10:42:07;6.10;;;1.02;;
5774;SDS011;2913;51.120;6.772;2023-05-07T10:44:36;3.80;;;1.10;;
5774;SDS011;2913;51.120;6.772;2023-05-07T10:52:19;3.92;;;1.40;;
5774;SDS011;2913;51.120;6.772;2023-05-07T10:55:19;1.95;;;1.10;;
5774;SDS011;2913;51.120;6.772;2023-05-07T10:57:44;1.67;;;1.20;;
5774;SDS011;2913;51.120;6.772;2023-05-07T11:05:28;5.82;;;1.30;;
5774;SDS011;2913;51.120;6.772;2023-05-07T11:07:59;2.22;;;1.25;;
5774;SDS011;2913;51.120;6.772;2023-05-07T11:11:08;4.18;;;1.40;;
5774;SDS011;2913;51.120;6.772;2023-05-07T11:13:18;4.65;;;1.40;;
5774;SDS011;2913;51.120;6.772;2023-05-07T11:16:16;2.65;;;1.20;;
5774;SDS011;2913;51.120;6.772;2023-05-07T11:18:49;5.78;;;1.52;;
5774;SDS011;2913;51.120;6.772;2023-05-07T11:24:05;4.22;;;1.55;;
5774;SDS011;2913;51.120;6.772;2023-05-07T11:26:48;2.35;;;1.58;;
5774;SDS011;2913;51.120;6.772;2023-05-07T11:29:15;4.43;;;1.40;;
5774;SDS011;2913;51.120;6.772;2023-05-07T11:31:51;3.42;;;1.42;;
5774;SDS011;2913;51.120;6.772;2023-05-07T11:34:25;6.95;;;1.77;;
5774;SDS011;2913;51.120;6.772;2023-05-07T11:36:55;2.22;;;1.50;;
5774;SDS011;2913;51.120;6.772;2023-05-07T11:39:29;7.22;;;1.40;;
5774;SDS011;2913;51.120;6.772;2023-05-07T11:42:03;4.55;;;1.40;;
5774;SDS011;2913;51.120;6.772;2023-05-07T11:44:41;3.67;;;1.45;;
5774;SDS011;2913;51.120;6.772;2023-05-07T11:47:10;3.30;;;1.45;;
5774;SDS011;2913;51.120;6.772;2023-05-07T11:49:36;5.28;;;1.70;;
5774;SDS011;2913;51.120;6.772;2023-05-07T11:52:02;4.82;;;1.60;;
5774;SDS011;2913;51.120;6.772;2023-05-07T11:54:34;2.70;;;1.40;;
5774;SDS011;2913;51.120;6.772;2023-05-07T11:57:01;4.32;;;1.90;;
5774;SDS011;2913;51.120;6.772;2023-05-07T11:59:27;4.43;;;1.67;;
5774;SDS011;2913;51.120;6.772;2023-05-07T12:01:58;3.75;;;1.52;;
5774;SDS011;2913;51.120;6.772;2023-05-07T12:04:24;2.47;;;1.45;;
5774;SDS011;2913;51.120;6.772;2023-05-07T12:06:53;8.32;;;1.88;;
5774;SDS011;2913;51.120;6.772;2023-05-07T12:09:20;3.45;;;1.85;;
5774;SDS011;2913;51.120;6.772;2023-05-07T12:11:48;3.20;;;1.75;;
5774;SDS011;2913;51.120;6.772;2023-05-07T12:14:16;6.43;;;1.98;;
5774;SDS011;2913;51.120;6.772;2023-05-07T12:16:42;2.78;;;1.65;;
5774;SDS011;2913;51.120;6.772;2023-05-07T12:19:08;4.63;;;1.88;;
5774;SDS011;2913;51.120;6.772;2023-05-07T12:21:39;5.80;;;1.90;;
5774;SDS011;2913;51.120;6.772;2023-05-07T12:24:08;5.43;;;1.70;;
5774;SDS011;2913;51.120;6.772;2023-05-07T12:26:37;3.28;;;1.70;;
5774;SDS011;2913;51.120;6.772;2023-05-07T12:29:05;2.63;;;1.67;;
5774;SDS011;2913;51.120;6.772;2023-05-07T12:31:34;2.97;;;1.90;;
5774;SDS011;2913;51.120;6.772;2023-05-07T12:33:59;4.80;;;1.67;;
5774;SDS011;2913;51.120;6.772;2023-05-07T12:36:35;3.22;;;1.85;;
5774;SDS011;2913;51.120;6.772;2023-05-07T12:39:04;4.20;;;2.13;;
5774;SDS011;2913;51.120;6.772;2023-05-07T12:41:30;4.03;;;1.70;;
5774;SDS011;2913;51.120;6.772;2023-05-07T12:44:19;5.25;;;1.70;;
5774;SDS011;2913;51.120;6.772;2023-05-07T12:46:52;3.25;;;1.77;;
5774;SDS011;2913;51.120;6.772;2023-05-07T12:49:17;4.93;;;1.80;;
5774;SDS011;2913;51.120;6.772;2023-05-07T12:51:48;2.90;;;1.77;;
5774;SDS011;2913;51.120;6.772;2023-05-07T12:54:29;4.63;;;1.90;;
5774;SDS011;2913;51.120;6.772;2023-05-07T12:57:07;6.05;;;1.65;;
5774;SDS011;2913;51.120;6.772;2023-05-07T13:02:03;2.97;;;1.65;;
5774;SDS011;2913;51.120;6.772;2023-05-07T13:04:29;4.45;;;1.70;;
5774;SDS011;2913;51.120;6.772;2023-05-07T13:06:55;3.08;;;1.77;;
5774;SDS011;2913;51.120;6.772;2023-05-07T13:09:21;7.95;;;1.80;;
5774;SDS011;2913;51.120;6.772;2023-05-07T13:11:49;4.75;;;1.90;;
5774;SDS011;2913;51.120;6.772;2023-05-07T13:14:15;3.88;;;1.70;;
5774;SDS011;2913;51.120;6.772;2023-05-07T13:16:40;2.97;;;1.60;;
5774;SDS011;2913;51.120;6.772;2023-05-07T13:19:06;7.20;;;1.63;;
5774;SDS011;2913;51.120;6.772;2023-05-07T13:21:34;4.65;;;1.70;;
5774;SDS011;2913;51.120;6.772;2023-05-07T13:23:59;8.80;;;1.75;;
5774;SDS011;2913;51.120;6.772;2023-05-07T13:26:25;2.85;;;1.70;;
5774;SDS011;2913;51.120;6.772;2023-05-07T13:28:53;6.75;;;2.30;;
5774;SDS011;2913;51.120;6.772;2023-05-07T13:31:23;7.45;;;3.05;;
5774;SDS011;2913;51.120;6.772;2023-05-07T13:33:49;6.57;;;2.00;;
5774;SDS011;2913;51.120;6.772;2023-05-07T13:36:15;4.90;;;1.60;;
5774;SDS011;2913;51.120;6.772;2023-05-07T13:38:45;4.57;;;1.80;;
5774;SDS011;2913;51.120;6.772;2023-05-07T13:41:11;2.45;;;1.42;;
5774;SDS011;2913;51.120;6.772;2023-05-07T13:43:38;6.53;;;1.65;;
5774;SDS011;2913;51.120;6.772;2023-05-07T13:46:05;4.72;;;1.42;;
5774;SDS011;2913;51.120;6.772;2023-05-07T13:48:33;5.75;;;1.70;;
5774;SDS011;2913;51.120;6.772;2023-05-07T13:51:01;4.75;;;1.85;;
5774;SDS011;2913;51.120;6.772;2023-05-07T13:53:27;3.25;;;1.73;;
5774;SDS011;2913;51.120;6.772;2023-05-07T13:55:52;3.50;;;1.80;;
5774;SDS011;2913;51.120;6.772;2023-05-07T13:58:20;5.50;;;1.70;;
5774;SDS011;2913;51.120;6.772;2023-05-07T14:00:46;4.55;;;2.05;;
5774;SDS011;2913;51.120;6.772;2023-05-07T14:03:14;3.25;;;1.67;;
5774;SDS011;2913;51.120;6.772;2023-05-07T14:05:42;5.60;;;1.80;;
5774;SDS011;2913;51.120;6.772;2023-05-07T14:08:08;4.45;;;1.95;;
5774;SDS011;2913;51.120;6.772;2023-05-07T14:10:33;5.75;;;2.95;;
5774;SDS011;2913;51.120;6.772;2023-05-07T14:13:01;2.40;;;1.73;;
5774;SDS011;2913;51.120;6.772;2023-05-07T14:15:27;3.90;;;2.08;;
5774;SDS011;2913;51.120;6.772;2023-05-07T14:17:57;4.55;;;2.53;;
5774;SDS011;2913;51.120;6.772;2023-05-07T14:20:24;5.68;;;2.40;;
5774;SDS011;2913;51.120;6.772;2023-05-07T14:22:51;5.55;;;2.33;;
5774;SDS011;2913;51.120;6.772;2023-05-07T14:25:17;5.57;;;2.63;;
5774;SDS011;2913;51.120;6.772;2023-05-07T14:27:45;3.63;;;2.58;;
5774;SDS011;2913;51.120;6.772;2023-05-07T14:30:13;3.08;;;2.38;;
5774;SDS011;2913;51.120;6.772;2023-05-07T14:32:41;5.35;;;2.70;;
5774;SDS011;2913;51.120;6.772;2023-05-07T14:35:07;4.97;;;2.55;;
5774;SDS011;2913;51.120;6.772;2023-05-07T14:37:33;4.50;;;2.72;;
5774;SDS011;2913;51.120;6.772;2023-05-07T14:39:58;4.88;;;2.75;;
5774;SDS011;2913;51.120;6.772;2023-05-07T14:42:27;6.35;;;2.70;;
5774;SDS011;2913;51.120;6.772;2023-05-07T14:44:52;4.95;;;2.92;;
5774;SDS011;2913;51.120;6.772;2023-05-07T14:47:18;5.88;;;3.17;;
5774;SDS011;2913;51.120;6.772;2023-05-07T14:49:44;7.90;;;3.15;;
5774;SDS011;2913;51.120;6.772;2023-05-07T14:52:12;8.63;;;3.50;;
5774;SDS011;2913;51.120;6.772;2023-05-07T14:54:37;6.43;;;3.53;;
5774;SDS011;2913;51.120;6.772;2023-05-07T14:57:04;6.60;;;3.35;;
5774;SDS011;2913;51.120;6.772;2023-05-07T14:59:33;5.07;;;3.10;;
5774;SDS011;2913;51.120;6.772;2023-05-07T15:01:58;4.28;;;3.20;;
5774;SDS011;2913;51.120;6.772;2023-05-07T15:04:26;4.88;;;2.88;;
5774;SDS011;2913;51.120;6.772;2023-05-07T15:06:52;5.95;;;2.88;;
5774;SDS011;2913;51.120;6.772;2023-05-07T15:09:21;5.15;;;3.10;;
5774;SDS011;2913;51.120;6.772;2023-05-07T15:11:49;5.80;;;3.00;;
5774;SDS011;2913;51.120;6.772;2023-05-07T15:14:15;7.40;;;2.65;;
5774;SDS011;2913;51.120;6.772;2023-05-07T15:16:43;5.38;;;2.65;;
5774;SDS011;2913;51.120;6.772;2023-05-07T15:19:08;5.68;;;2.85;;
5774;SDS011;2913;51.120;6.772;2023-05-07T15:21:36;4.80;;;2.58;;
5774;SDS011;2913;51.120;6.772;2023-05-07T15:24:02;4.10;;;2.55;;
5774;SDS011;2913;51.120;6.772;2023-05-07T15:26:28;8.85;;;2.75;;
5774;SDS011;2913;51.120;6.772;2023-05-07T15:28:54;7.68;;;3.60;;
5774;SDS011;2913;51.120;6.772;2023-05-07T15:31:22;4.43;;;3.05;;
5774;SDS011;2913;51.120;6.772;2023-05-07T15:33:50;10.23;;;3.25;;
5774;SDS011;2913;51.120;6.772;2023-05-07T15:36:21;11.80;;;3.63;;